Time;durP1;ratioP1;P1;durP2;ratioP2;P2;SDS_P1;SDS_P2;PMS_P1;PMS_P2;Temp;Humidity;BMP_temperature;BMP_pressure;BME280_temperature;BME280_humidity;BME280_pressure;Samples;Min_cycle;Max_cycle;Signal;HPM_P1;HPM_P2
2022/10/24 00:08:47;;;;;;;3.03;1.17;;;;;;;;;;4782803;29;20248;-89
2022/10/24 00:31:54;;;;;;;5.00;2.70;;;;;;;;;;4835980;29;20279;-90
2022/10/24 00:35:08;;;;;;;3.47;2.30;;;;;;;;;;4838593;29;20224;-90
2022/10/24 00:45:39;;;;;;;5.20;2.47;;;;;;;;;;4879706;29;20229;-90
2022/10/24 00:48:13;;;;;;;5.50;2.43;;;;;;;;;;4961821;28;20227;-90
2022/10/24 01:13:45;;;;;;;7.57;3.87;;;;;;;;;;4794135;29;20213;-90
2022/10/24 01:16:15;;;;;;;3.40;3.10;;;;;;;;;;4870567;29;20215;-91
2022/10/24 01:49:07;;;;;;;6.40;3.70;;;;;;;;;;5083716;28;20234;-88
2022/10/24 01:51:36;;;;;;;4.70;3.23;;;;;;;;;;5068116;28;20210;-90
2022/10/24 01:54:05;;;;;;;5.37;3.20;;;;;;;;;;5074752;28;20195;-91
2022/10/24 01:56:33;;;;;;;5.77;3.37;;;;;;;;;;5093272;28;20204;-91
2022/10/24 01:59:05;;;;;;;5.87;2.80;;;;;;;;;;5075328;28;20203;-91
2022/10/24 02:01:35;;;;;;;2.47;2.27;;;;;;;;;;5057199;28;20203;-90
2022/10/24 02:04:06;;;;;;;6.17;3.73;;;;;;;;;;5071787;28;20199;-90
2022/10/24 02:06:38;;;;;;;3.83;3.10;;;;;;;;;;5075331;28;20236;-89
2022/10/24 02:09:08;;;;;;;5.47;2.93;;;;;;;;;;5062052;28;20218;-91
2022/10/24 02:11:38;;;;;;;9.10;3.87;;;;;;;;;;5062948;28;20239;-90
2022/10/24 02:14:10;;;;;;;6.53;2.80;;;;;;;;;;5074100;28;20227;-90
2022/10/24 02:16:38;;;;;;;4.30;2.27;;;;;;;;;;5079467;28;20224;-90
2022/10/24 02:19:19;;;;;;;10.50;4.23;;;;;;;;;;5067037;28;20195;-90
2022/10/24 02:21:56;;;;;;;3.97;1.90;;;;;;;;;;5089721;28;20250;-90
2022/10/24 02:24:35;;;;;;;6.93;3.23;;;;;;;;;;5055680;28;20205;-90
2022/10/24 02:27:07;;;;;;;5.03;2.57;;;;;;;;;;5056103;28;20207;-90
2022/10/24 02:29:38;;;;;;;5.63;3.43;;;;;;;;;;5055701;28;20241;-90
2022/10/24 02:32:08;;;;;;;6.00;3.93;;;;;;;;;;5061607;28;20207;-90
2022/10/24 02:34:37;;;;;;;8.13;3.77;;;;;;;;;;5069673;28;20199;-90
2022/10/24 02:37:08;;;;;;;6.77;3.63;;;;;;;;;;5075021;28;20203;-91
2022/10/24 02:39:38;;;;;;;4.57;2.80;;;;;;;;;;5071491;28;20195;-89
2022/10/24 02:42:07;;;;;;;6.23;2.50;;;;;;;;;;5071996;28;20207;-90
2022/10/24 02:44:35;;;;;;;6.53;2.87;;;;;;;;;;5056177;28;20215;-90
2022/10/24 02:47:06;;;;;;;8.63;2.77;;;;;;;;;;5073838;28;20203;-90
2022/10/24 02:49:34;;;;;;;3.50;2.20;;;;;;;;;;5085649;28;20220;-90
2022/10/24 02:52:03;;;;;;;5.77;2.43;;;;;;;;;;5055526;28;20230;-90
2022/10/24 02:54:33;;;;;;;7.33;3.27;;;;;;;;;;5055148;28;20226;-90
2022/10/24 02:57:03;;;;;;;8.20;3.40;;;;;;;;;;5067477;28;20211;-89
2022/10/24 02:59:32;;;;;;;3.43;2.00;;;;;;;;;;5061270;28;20216;-91
2022/10/24 03:02:00;;;;;;;5.87;2.67;;;;;;;;;;5061970;28;20195;-90
2022/10/24 03:04:28;;;;;;;4.93;2.70;;;;;;;;;;5055124;28;20238;-91
2022/10/24 03:06:57;;;;;;;5.00;2.60;;;;;;;;;;5067855;28;20223;-90
2022/10/24 03:10:05;;;;;;;4.70;2.30;;;;;;;;;;5055328;28;20208;-90
2022/10/24 03:12:35;;;;;;;4.63;2.27;;;;;;;;;;5060383;28;20202;-90
2022/10/24 03:15:04;;;;;;;8.90;2.87;;;;;;;;;;5059127;28;20231;-90
2022/10/24 03:17:32;;;;;;;8.23;2.67;;;;;;;;;;5078297;28;20211;-90
2022/10/24 03:20:01;;;;;;;4.13;2.07;;;;;;;;;;5077994;28;20224;-90
2022/10/24 03:22:29;;;;;;;4.53;2.30;;;;;;;;;;5095824;28;20213;-89
2022/10/24 03:25:00;;;;;;;6.87;2.23;;;;;;;;;;5093217;28;20203;-90
2022/10/24 03:27:29;;;;;;;8.53;3.47;;;;;;;;;;5076158;28;20288;-90
2022/10/24 03:29:59;;;;;;;4.33;2.73;;;;;;;;;;5078966;28;20222;-90
2022/10/24 03:32:27;;;;;;;8.33;4.70;;;;;;;;;;5078059;28;20249;-90
2022/10/24 03:34:56;;;;;;;6.83;2.47;;;;;;;;;;5078359;28;20203;-91
2022/10/24 03:37:24;;;;;;;6.33;2.70;;;;;;;;;;5058712;28;20213;-91
2022/10/24 03:39:53;;;;;;;5.03;2.50;;;;;;;;;;5062258;28;20183;-90
2022/10/24 03:42:21;;;;;;;4.23;1.70;;;;;;;;;;5077843;28;20239;-91
2022/10/24 03:44:50;;;;;;;3.93;2.07;;;;;;;;;;5071680;28;20200;-91
2022/10/24 03:47:19;;;;;;;7.27;2.70;;;;;;;;;;5088231;28;20246;-90
2022/10/24 03:49:48;;;;;;;7.70;2.40;;;;;;;;;;5069356;28;20224;-91
2022/10/24 03:52:16;;;;;;;6.13;2.43;;;;;;;;;;5057618;28;20208;-90
2022/10/24 03:55:01;;;;;;;7.10;2.50;;;;;;;;;;5064344;28;20217;-90
2022/10/24 03:57:30;;;;;;;7.43;2.20;;;;;;;;;;5075299;28;20210;-91
2022/10/24 03:59:58;;;;;;;5.03;2.07;;;;;;;;;;5057746;28;20187;-89
2022/10/24 04:05:34;;;;;;;6.63;1.83;;;;;;;;;;5069017;28;20215;-90
2022/10/24 04:20:23;;;;;;;;;;;;;;;;;;;;;
2022/10/24 04:23:55;;;;;;;3.00;1.40;;;;;;;;;;4850331;29;20219;-90
2022/10/24 04:31:25;;;;;;;8.57;3.23;;;;;;;;;;4831970;29;20246;-90
2022/10/24 04:37:43;;;;;;;6.47;2.63;;;;;;;;;;4883589;29;20218;-90
2022/10/24 04:44:07;;;;;;;4.80;1.70;;;;;;;;;;4928448;29;20216;-90
2022/10/24 04:47:19;;;;;;;10.20;3.40;;;;;;;;;;4976814;28;20203;-90
2022/10/24 04:49:48;;;;;;;8.70;2.83;;;;;;;;;;4992749;28;20219;-90
2022/10/24 04:52:16;;;;;;;5.87;2.07;;;;;;;;;;4976998;28;20237;-90
2022/10/24 04:55:13;;;;;;;7.53;2.33;;;;;;;;;;4977690;28;20216;-90
2022/10/24 04:57:41;;;;;;;4.23;1.73;;;;;;;;;;4991347;28;20218;-91
2022/10/24 05:03:22;;;;;;;7.60;2.57;;;;;;;;;;4985216;28;20258;-91
2022/10/24 05:05:50;;;;;;;5.80;2.73;;;;;;;;;;4989687;28;20207;-91
2022/10/24 05:08:19;;;;;;;6.30;2.63;;;;;;;;;;5027343;28;20295;-90
2022/10/24 05:10:49;;;;;;;9.47;3.30;;;;;;;;;;5056292;28;20235;-91
2022/10/24 05:25:34;;;;;;;6.67;2.70;;;;;;;;;;5076665;28;20231;-90
2022/10/24 05:40:05;;;;;;;8.20;3.33;;;;;;;;;;4953395;28;20198;-85
2022/10/24 05:45:53;;;;;;;9.47;2.70;;;;;;;;;;4969101;28;20207;-85
2022/10/24 05:48:21;;;;;;;8.77;2.77;;;;;;;;;;4975492;28;20208;-85
2022/10/24 05:50:51;;;;;;;11.73;3.27;;;;;;;;;;4976167;28;20313;-84
2022/10/24 05:53:21;;;;;;;8.00;2.60;;;;;;;;;;4972868;28;20209;-85
2022/10/24 05:55:52;;;;;;;5.87;2.47;;;;;;;;;;4982212;28;20222;-85
2022/10/24 05:58:21;;;;;;;6.87;2.50;;;;;;;;;;4976237;28;20212;-85
2022/10/24 06:00:52;;;;;;;2.90;1.87;;;;;;;;;;5013241;28;20295;-85
2022/10/24 06:03:26;;;;;;;5.13;1.73;;;;;;;;;;5075436;28;20195;-84
2022/10/24 06:05:58;;;;;;;3.83;2.13;;;;;;;;;;5056066;28;20246;-84
2022/10/24 06:27:52;;;;;;;3.90;1.57;;;;;;;;;;5056787;28;20231;-85
2022/10/24 06:37:54;;;;;;;9.30;2.50;;;;;;;;;;5026490;28;20205;-86
2022/10/24 06:40:57;;;;;;;;;;;;;;;;;;;;;
2022/10/24 06:44:11;;;;;;;6.50;2.00;;;;;;;;;;5016598;28;20251;-83
2022/10/24 06:47:14;;;;;;;3.27;1.33;;;;;;;;;;5002335;28;20218;-86
2022/10/24 06:54:44;;;;;;;5.10;1.63;;;;;;;;;;4966972;28;20249;-85
2022/10/24 06:57:17;;;;;;;13.47;2.67;;;;;;;;;;5026474;28;20216;-85
2022/10/24 06:59:50;;;;;;;10.53;2.33;;;;;;;;;;5050628;28;20202;-84
2022/10/24 07:02:18;;;;;;;11.50;3.77;;;;;;;;;;5054566;28;20216;-85
2022/10/24 07:04:48;;;;;;;15.23;4.03;;;;;;;;;;5075633;28;20279;-84
2022/10/24 07:07:19;;;;;;;10.03;1.93;;;;;;;;;;5058856;28;20202;-85
2022/10/24 07:13:13;;;;;;;3.83;2.27;;;;;;;;;;5012546;28;20236;-86
2022/10/24 07:15:43;;;;;;;6.27;2.10;;;;;;;;;;5017858;28;20227;-85
2022/10/24 07:18:15;;;;;;;13.73;4.10;;;;;;;;;;5039230;28;20234;-85
2022/10/24 07:20:46;;;;;;;7.60;2.10;;;;;;;;;;5080437;28;20277;-85
2022/10/24 07:23:17;;;;;;;6.03;1.73;;;;;;;;;;5061791;28;20223;-85
2022/10/24 07:25:48;;;;;;;10.03;2.13;;;;;;;;;;5077176;28;20208;-85
2022/10/24 07:28:17;;;;;;;6.87;1.90;;;;;;;;;;5095287;28;20218;-85
2022/10/24 07:30:47;;;;;;;6.73;2.73;;;;;;;;;;5078302;28;20302;-86
2022/10/24 07:33:16;;;;;;;6.23;2.27;;;;;;;;;;5075363;28;20221;-85
2022/10/24 07:35:47;;;;;;;9.63;2.90;;;;;;;;;;5077780;28;20222;-82
2022/10/24 07:38:22;;;;;;;5.97;2.77;;;;;;;;;;5091826;28;20227;-85
2022/10/24 07:40:51;;;;;;;7.97;3.83;;;;;;;;;;5071608;28;20293;-85
2022/10/24 07:43:20;;;;;;;5.30;2.20;;;;;;;;;;5082095;28;20250;-85
2022/10/24 07:45:50;;;;;;;5.60;1.50;;;;;;;;;;5064975;28;20201;-86
2022/10/24 07:48:20;;;;;;;11.10;5.17;;;;;;;;;;5074790;28;20211;-86
2022/10/24 07:50:53;;;;;;;7.73;2.97;;;;;;;;;;5077613;28;20315;-86
2022/10/24 07:53:24;;;;;;;10.30;3.00;;;;;;;;;;5078141;28;20249;-86
2022/10/24 07:55:54;;;;;;;5.27;1.13;;;;;;;;;;5095107;28;20218;-86
2022/10/24 07:58:32;;;;;;;11.77;3.27;;;;;;;;;;5077684;28;20226;-86
2022/10/24 08:01:10;;;;;;;11.53;4.13;;;;;;;;;;5093682;28;20203;-86
2022/10/24 08:03:47;;;;;;;8.67;2.73;;;;;;;;;;5064680;28;20223;-86
2022/10/24 08:06:17;;;;;;;9.00;2.70;;;;;;;;;;5073925;28;20230;-86
2022/10/24 08:08:50;;;;;;;12.70;4.43;;;;;;;;;;5077455;28;20217;-86
2022/10/24 08:11:21;;;;;;;6.83;2.33;;;;;;;;;;5067473;28;20240;-86
2022/10/24 08:13:53;;;;;;;11.30;4.03;;;;;;;;;;5074790;28;20253;-86
2022/10/24 08:16:26;;;;;;;15.10;3.90;;;;;;;;;;5077597;28;20262;-86
2022/10/24 08:19:03;;;;;;;4.27;1.93;;;;;;;;;;5076857;28;20226;-85
2022/10/24 08:21:35;;;;;;;10.40;3.73;;;;;;;;;;5076701;28;20218;-86
2022/10/24 08:24:11;;;;;;;2.30;1.63;;;;;;;;;;5077218;28;20255;-86
2022/10/24 08:26:46;;;;;;;13.37;4.73;;;;;;;;;;5076608;28;20241;-86
2022/10/24 08:29:20;;;;;;;14.40;4.87;;;;;;;;;;5074197;28;20200;-85
2022/10/24 08:31:53;;;;;;;10.17;3.53;;;;;;;;;;5072053;28;20209;-86
2022/10/24 08:34:22;;;;;;;11.03;3.70;;;;;;;;;;5070264;28;20209;-85
2022/10/24 08:36:51;;;;;;;17.27;4.47;;;;;;;;;;5073363;28;20195;-85
2022/10/24 08:39:22;;;;;;;24.90;4.30;;;;;;;;;;5076208;28;20210;-85
2022/10/24 08:41:54;;;;;;;6.83;1.90;;;;;;;;;;5077226;28;20194;-84
2022/10/24 08:44:29;;;;;;;5.03;2.60;;;;;;;;;;5076026;28;20207;-85
2022/10/24 08:47:01;;;;;;;6.17;2.07;;;;;;;;;;5073297;28;20232;-85
2022/10/24 08:49:31;;;;;;;13.17;2.43;;;;;;;;;;5089211;28;20293;-84
2022/10/24 08:52:01;;;;;;;19.23;5.07;;;;;;;;;;5076619;28;20264;-84
2022/10/24 08:54:35;;;;;;;3.53;1.83;;;;;;;;;;5073225;28;20212;-85
2022/10/24 08:57:04;;;;;;;11.27;3.23;;;;;;;;;;5073446;28;20204;-84
2022/10/24 08:59:35;;;;;;;10.47;3.83;;;;;;;;;;5070362;28;20208;-84
2022/10/24 09:02:13;;;;;;;9.73;2.70;;;;;;;;;;5057071;28;20230;-85
2022/10/24 09:04:49;;;;;;;12.47;3.17;;;;;;;;;;5076971;28;20206;-84
2022/10/24 09:07:20;;;;;;;4.57;2.83;;;;;;;;;;5076333;28;20204;-85
2022/10/24 09:09:50;;;;;;;18.20;3.20;;;;;;;;;;5090289;28;20215;-84
2022/10/24 09:12:20;;;;;;;10.43;3.87;;;;;;;;;;5061417;28;20325;-85
2022/10/24 09:14:52;;;;;;;17.47;2.90;;;;;;;;;;5093550;28;20195;-85
2022/10/24 09:17:30;;;;;;;10.87;4.13;;;;;;;;;;5072801;28;20202;-85
2022/10/24 09:20:11;;;;;;;8.33;2.17;;;;;;;;;;5087816;28;20229;-86
2022/10/24 09:22:43;;;;;;;14.47;4.20;;;;;;;;;;5073243;28;20205;-91
2022/10/24 09:25:16;;;;;;;13.13;3.87;;;;;;;;;;5070487;28;20208;-90
2022/10/24 09:28:02;;;;;;;7.47;3.23;;;;;;;;;;5094109;28;20234;-87
2022/10/24 09:30:35;;;;;;;15.43;4.50;;;;;;;;;;5070315;28;20209;-87
2022/10/24 09:33:14;;;;;;;8.03;3.27;;;;;;;;;;5070813;28;20208;-87
2022/10/24 09:35:44;;;;;;;10.50;2.80;;;;;;;;;;5066494;28;20214;-88
2022/10/24 09:38:32;;;;;;;9.57;5.43;;;;;;;;;;5090957;28;20301;-88
2022/10/24 09:41:02;;;;;;;12.43;4.07;;;;;;;;;;5086484;28;20208;-86
2022/10/24 09:43:34;;;;;;;14.13;3.20;;;;;;;;;;5083832;28;20217;-87
2022/10/24 09:46:05;;;;;;;8.20;2.93;;;;;;;;;;5080444;28;20273;-87
2022/10/24 09:48:39;;;;;;;9.27;3.83;;;;;;;;;;5076823;28;20215;-86
2022/10/24 09:51:08;;;;;;;16.27;3.67;;;;;;;;;;5060707;28;20219;-85
2022/10/24 09:53:39;;;;;;;12.53;4.23;;;;;;;;;;5060994;28;20202;-86
2022/10/24 09:56:10;;;;;;;6.37;3.03;;;;;;;;;;5065001;28;20212;-85
2022/10/24 09:58:41;;;;;;;2.17;0.83;;;;;;;;;;5080551;28;20213;-85
2022/10/24 10:01:19;;;;;;;8.90;3.17;;;;;;;;;;5079747;28;20195;-86
2022/10/24 10:04:01;;;;;;;9.20;3.40;;;;;;;;;;5067387;28;20249;-86
2022/10/24 10:06:43;;;;;;;9.03;2.63;;;;;;;;;;5087146;28;20206;-86
2022/10/24 10:09:13;;;;;;;8.27;2.97;;;;;;;;;;5071840;28;20257;-86
2022/10/24 10:11:42;;;;;;;12.10;4.17;;;;;;;;;;5074194;28;20211;-87
2022/10/24 10:14:31;;;;;;;15.43;4.70;;;;;;;;;;5073842;28;20769;-85
2022/10/24 10:17:01;;;;;;;8.13;2.03;;;;;;;;;;5068189;28;20246;-85
2022/10/24 10:19:58;;;;;;;;;;;;;;;;;;;;;
2022/10/24 10:22:35;;;;;;;10.17;3.53;;;;;;;;;;5083326;28;20219;-85
2022/10/24 10:25:28;;;;;;;8.10;2.90;;;;;;;;;;5068305;28;20222;-87
2022/10/24 10:27:57;;;;;;;10.53;2.83;;;;;;;;;;5069245;28;20312;-85
2022/10/24 10:30:30;;;;;;;13.47;4.07;;;;;;;;;;5086292;28;20207;-86
2022/10/24 10:33:06;;;;;;;5.73;1.80;;;;;;;;;;5070292;28;20221;-81
2022/10/24 10:35:41;;;;;;;12.63;3.10;;;;;;;;;;5069175;28;20219;-87
2022/10/24 10:38:19;;;;;;;10.93;2.20;;;;;;;;;;5069524;28;20204;-89
2022/10/24 10:40:50;;;;;;;9.20;3.60;;;;;;;;;;5088262;28;20202;-86
2022/10/24 10:43:28;;;;;;;13.13;4.23;;;;;;;;;;5071940;28;20309;-88
2022/10/24 10:46:05;;;;;;;15.17;3.30;;;;;;;;;;5087546;28;20204;-84
2022/10/24 10:48:41;;;;;;;6.90;3.20;;;;;;;;;;5070353;28;20208;-86
2022/10/24 10:51:37;;;;;;;21.23;2.30;;;;;;;;;;5067163;28;20196;-84
2022/10/24 10:54:15;;;;;;;4.00;1.50;;;;;;;;;;5068856;28;20208;-82
2022/10/24 10:56:54;;;;;;;9.70;1.80;;;;;;;;;;5068303;28;20198;-85
2022/10/24 10:59:43;;;;;;;9.00;3.03;;;;;;;;;;5087081;28;20233;-82
2022/10/24 11:02:25;;;;;;;6.17;2.33;;;;;;;;;;5084858;28;20192;-82
2022/10/24 11:04:58;;;;;;;10.47;2.97;;;;;;;;;;5064588;28;20210;-83
2022/10/24 11:07:31;;;;;;;6.77;1.30;;;;;;;;;;5067852;28;20213;-83
2022/10/24 11:10:03;;;;;;;11.13;3.87;;;;;;;;;;5084669;28;20289;-84
2022/10/24 11:12:33;;;;;;;18.93;4.13;;;;;;;;;;5071087;28;20231;-83
2022/10/24 11:15:08;;;;;;;11.63;3.43;;;;;;;;;;5065971;28;20231;-82
2022/10/24 11:17:49;;;;;;;4.43;2.03;;;;;;;;;;5071421;28;20204;-83
2022/10/24 11:20:22;;;;;;;18.33;3.60;;;;;;;;;;5067393;28;20312;-84
2022/10/24 11:22:56;;;;;;;8.03;2.53;;;;;;;;;;5073859;28;20196;-83
2022/10/24 11:25:31;;;;;;;7.57;2.13;;;;;;;;;;5078733;28;20205;-84
2022/10/24 11:28:09;;;;;;;4.23;1.83;;;;;;;;;;5063549;28;20272;-85
2022/10/24 11:30:43;;;;;;;5.63;2.00;;;;;;;;;;5081065;28;20218;-85
2022/10/24 11:33:17;;;;;;;4.90;2.63;;;;;;;;;;5081291;28;20219;-85
2022/10/24 11:36:12;;;;;;;8.90;2.87;;;;;;;;;;5080108;28;20204;-85
2022/10/24 11:38:48;;;;;;;8.33;2.30;;;;;;;;;;5063219;28;20203;-84
2022/10/24 11:41:30;;;;;;;8.27;3.20;;;;;;;;;;5087583;28;20200;-84
2022/10/24 11:44:02;;;;;;;10.17;2.77;;;;;;;;;;5067540;28;20201;-85
2022/10/24 11:46:35;;;;;;;6.40;2.63;;;;;;;;;;5064598;28;20212;-84
2022/10/24 11:49:09;;;;;;;9.80;2.17;;;;;;;;;;5066902;28;20208;-83
2022/10/24 11:51:39;;;;;;;26.37;3.73;;;;;;;;;;5079580;28;20223;-83
2022/10/24 11:54:13;;;;;;;7.63;2.53;;;;;;;;;;5065435;28;20222;-83
2022/10/24 11:56:45;;;;;;;5.53;2.00;;;;;;;;;;5082785;28;20197;-84
2022/10/24 11:59:17;;;;;;;9.07;2.17;;;;;;;;;;5069937;28;20204;-84
2022/10/24 12:01:59;;;;;;;5.57;1.87;;;;;;;;;;5070307;28;20200;-85
2022/10/24 12:04:39;;;;;;;5.70;1.63;;;;;;;;;;5073104;28;20204;-84
2022/10/24 12:07:26;;;;;;;11.77;4.37;;;;;;;;;;5087575;28;20216;-84
2022/10/24 12:10:03;;;;;;;5.17;1.97;;;;;;;;;;5049698;28;20211;-85
2022/10/24 12:12:42;;;;;;;6.03;2.10;;;;;;;;;;5066897;28;20312;-85
2022/10/24 12:15:18;;;;;;;13.93;3.47;;;;;;;;;;5070083;28;20214;-83
2022/10/24 12:17:56;;;;;;;10.23;3.23;;;;;;;;;;5070955;28;20198;-83
2022/10/24 12:20:26;;;;;;;8.30;2.70;;;;;;;;;;5068016;28;20307;-85
2022/10/24 12:22:57;;;;;;;5.53;2.03;;;;;;;;;;5069797;28;20273;-84
2022/10/24 12:25:31;;;;;;;10.67;2.57;;;;;;;;;;5071907;28;20217;-85
2022/10/24 12:28:02;;;;;;;11.17;4.07;;;;;;;;;;5089075;28;20239;-84
2022/10/24 12:30:32;;;;;;;2.27;1.77;;;;;;;;;;5084699;28;20210;-83
2022/10/24 12:33:09;;;;;;;11.87;2.03;;;;;;;;;;5069610;28;20220;-86
2022/10/24 12:35:58;;;;;;;4.13;1.83;;;;;;;;;;5081945;28;20208;-83
2022/10/24 12:38:46;;;;;;;10.57;3.07;;;;;;;;;;5070329;28;20204;-84
2022/10/24 12:41:29;;;;;;;15.80;5.13;;;;;;;;;;5073214;28;20204;-84
2022/10/24 12:44:14;;;;;;;9.80;2.77;;;;;;;;;;5069995;28;20189;-85
2022/10/24 12:46:56;;;;;;;7.83;2.23;;;;;;;;;;5066545;28;20217;-83
2022/10/24 12:49:30;;;;;;;2.97;1.60;;;;;;;;;;5085513;28;20299;-84
2022/10/24 12:52:37;;;;;;;8.30;1.93;;;;;;;;;;5071288;28;20203;-85
2022/10/24 12:55:25;;;;;;;7.03;2.93;;;;;;;;;;5072022;28;20204;-84
2022/10/24 12:57:55;;;;;;;5.43;2.93;;;;;;;;;;5072233;28;20240;-85
2022/10/24 13:00:25;;;;;;;8.47;3.07;;;;;;;;;;5093328;28;20208;-85
2022/10/24 13:03:09;;;;;;;15.23;4.47;;;;;;;;;;5071761;28;20205;-85
2022/10/24 13:05:49;;;;;;;7.43;2.47;;;;;;;;;;5086955;28;20206;-85
2022/10/24 13:08:24;;;;;;;2.30;1.30;;;;;;;;;;5070312;28;20204;-84
2022/10/24 13:11:04;;;;;;;5.00;2.70;;;;;;;;;;5071740;28;20313;-84
2022/10/24 13:13:40;;;;;;;3.00;1.20;;;;;;;;;;5066715;28;20227;-84
2022/10/24 13:16:17;;;;;;;9.20;2.80;;;;;;;;;;5068092;28;20242;-84
2022/10/24 13:18:53;;;;;;;5.37;2.20;;;;;;;;;;5066907;28;20231;-85
2022/10/24 13:21:25;;;;;;;17.07;4.20;;;;;;;;;;5069792;28;20227;-85
2022/10/24 13:24:11;;;;;;;14.93;3.47;;;;;;;;;;5071650;28;20203;-85
2022/10/24 13:26:46;;;;;;;10.13;2.40;;;;;;;;;;5068480;28;20327;-84
2022/10/24 13:29:17;;;;;;;1.87;1.20;;;;;;;;;;5087896;28;20203;-84
2022/10/24 13:31:52;;;;;;;2.10;1.40;;;;;;;;;;5088962;28;20280;-84
2022/10/24 13:34:29;;;;;;;8.30;2.30;;;;;;;;;;5087568;28;20320;-85
2022/10/24 13:37:00;;;;;;;5.13;2.00;;;;;;;;;;5067558;28;20200;-85
2022/10/24 13:39:31;;;;;;;8.33;2.70;;;;;;;;;;5087019;28;20290;-83
2022/10/24 13:42:07;;;;;;;1.50;1.13;;;;;;;;;;5086995;28;20201;-85
2022/10/24 13:44:43;;;;;;;5.63;3.03;;;;;;;;;;5089569;28;20197;-84
2022/10/24 13:47:17;;;;;;;9.10;2.43;;;;;;;;;;5076410;28;20205;-84
2022/10/24 13:49:52;;;;;;;1.60;1.50;;;;;;;;;;5067871;28;20210;-84
2022/10/24 13:52:23;;;;;;;9.03;2.60;;;;;;;;;;5069741;28;20227;-85
2022/10/24 13:54:58;;;;;;;13.83;3.33;;;;;;;;;;5082739;28;20221;-84
2022/10/24 13:57:35;;;;;;;13.13;1.70;;;;;;;;;;5066505;28;20208;-84
2022/10/24 14:00:08;;;;;;;5.47;2.60;;;;;;;;;;5070462;28;20201;-85
2022/10/24 14:02:42;;;;;;;4.20;1.70;;;;;;;;;;5067688;28;20238;-85
2022/10/24 14:05:28;;;;;;;8.30;2.83;;;;;;;;;;5085798;28;20199;-85
2022/10/24 14:07:57;;;;;;;3.30;1.43;;;;;;;;;;5066836;28;20216;-84
2022/10/24 14:10:27;;;;;;;8.93;2.17;;;;;;;;;;5066918;28;20206;-85
2022/10/24 14:13:00;;;;;;;6.17;2.20;;;;;;;;;;5068149;28;20203;-85
2022/10/24 14:15:58;;;;;;;9.07;1.70;;;;;;;;;;5083861;28;20199;-86
2022/10/24 14:18:27;;;;;;;6.30;1.87;;;;;;;;;;5080094;28;20255;-86
2022/10/24 14:20:59;;;;;;;3.73;1.27;;;;;;;;;;5069053;28;20268;-85
2022/10/24 14:23:33;;;;;;;3.07;0.93;;;;;;;;;;5085399;28;20323;-84
2022/10/24 14:26:02;;;;;;;9.00;1.93;;;;;;;;;;5068611;28;20209;-83
2022/10/24 14:28:32;;;;;;;4.80;1.90;;;;;;;;;;5069440;28;20209;-84
2022/10/24 14:31:02;;;;;;;4.53;1.50;;;;;;;;;;5067959;28;20215;-84
2022/10/24 14:33:37;;;;;;;7.50;2.63;;;;;;;;;;5070055;28;20248;-84
2022/10/24 14:36:08;;;;;;;7.13;2.03;;;;;;;;;;5085344;28;20224;-85
2022/10/24 14:38:39;;;;;;;5.57;2.07;;;;;;;;;;5069027;28;20239;-85
2022/10/24 14:41:09;;;;;;;8.10;3.20;;;;;;;;;;5065570;28;20284;-85
2022/10/24 14:43:40;;;;;;;5.70;2.23;;;;;;;;;;5072516;28;20202;-84
2022/10/24 14:46:26;;;;;;;5.27;1.63;;;;;;;;;;5068081;28;20325;-84
2022/10/24 14:48:55;;;;;;;1.07;1.00;;;;;;;;;;5067280;28;20219;-84
2022/10/24 14:51:35;;;;;;;4.77;1.53;;;;;;;;;;5085312;28;20203;-85
2022/10/24 14:54:14;;;;;;;6.80;2.73;;;;;;;;;;5069027;28;20283;-85
2022/10/24 14:56:43;;;;;;;10.90;3.37;;;;;;;;;;5085235;28;20221;-86
2022/10/24 14:59:19;;;;;;;11.33;2.47;;;;;;;;;;5067624;28;20222;-84
2022/10/24 15:01:53;;;;;;;7.90;1.97;;;;;;;;;;5086752;28;20200;-85
2022/10/24 15:04:29;;;;;;;5.57;1.93;;;;;;;;;;5084951;28;20289;-84
2022/10/24 15:07:13;;;;;;;5.50;1.53;;;;;;;;;;5070712;28;20299;-85
2022/10/24 15:09:54;;;;;;;10.83;2.60;;;;;;;;;;5084929;28;20209;-85
2022/10/24 15:12:28;;;;;;;11.83;1.83;;;;;;;;;;5091862;28;20205;-86
2022/10/24 15:14:59;;;;;;;10.20;1.67;;;;;;;;;;5072721;28;20309;-86
2022/10/24 15:17:30;;;;;;;5.63;1.30;;;;;;;;;;5069150;28;20197;-85
2022/10/24 15:20:01;;;;;;;8.00;2.80;;;;;;;;;;5072841;28;20242;-85
2022/10/24 15:22:32;;;;;;;9.50;2.03;;;;;;;;;;5086862;28;20212;-84
2022/10/24 15:25:02;;;;;;;2.37;1.20;;;;;;;;;;5088062;28;20211;-85
2022/10/24 15:27:32;;;;;;;7.37;2.97;;;;;;;;;;5071070;28;20242;-84
2022/10/24 15:30:00;;;;;;;10.27;2.60;;;;;;;;;;5089698;28;20206;-85
2022/10/24 15:32:29;;;;;;;2.63;0.93;;;;;;;;;;5088961;28;20206;-85
2022/10/24 15:34:58;;;;;;;5.93;1.67;;;;;;;;;;5072642;28;20203;-84
2022/10/24 15:37:27;;;;;;;9.67;1.70;;;;;;;;;;5070041;28;20198;-86
2022/10/24 15:40:02;;;;;;;3.97;1.03;;;;;;;;;;5090119;28;20267;-85
2022/10/24 15:42:30;;;;;;;7.33;2.03;;;;;;;;;;5080795;28;20217;-86
2022/10/24 15:44:59;;;;;;;3.77;1.50;;;;;;;;;;5071050;28;20200;-86
2022/10/24 15:47:31;;;;;;;2.87;0.90;;;;;;;;;;5091104;28;20200;-86
2022/10/24 15:49:59;;;;;;;4.23;1.63;;;;;;;;;;5058299;28;20213;-86
2022/10/24 15:52:28;;;;;;;6.67;1.77;;;;;;;;;;5073269;28;20199;-86
2022/10/24 15:54:59;;;;;;;7.03;2.10;;;;;;;;;;5074671;28;20212;-86
2022/10/24 15:57:27;;;;;;;1.33;1.33;;;;;;;;;;5077982;28;20211;-86
2022/10/24 15:59:56;;;;;;;3.23;1.63;;;;;;;;;;5091369;28;20208;-86
2022/10/24 16:02:25;;;;;;;3.57;1.63;;;;;;;;;;5092478;28;20200;-86
2022/10/24 16:04:53;;;;;;;3.03;1.20;;;;;;;;;;5077678;28;20257;-86
2022/10/24 16:07:22;;;;;;;5.53;1.87;;;;;;;;;;5095075;28;20211;-86
2022/10/24 16:09:50;;;;;;;5.57;2.37;;;;;;;;;;5077605;28;20257;-86
2022/10/24 16:12:20;;;;;;;6.97;1.97;;;;;;;;;;5074124;28;20201;-86
2022/10/24 16:14:48;;;;;;;1.13;1.13;;;;;;;;;;5077524;28;20230;-86
2022/10/24 16:17:17;;;;;;;4.27;1.30;;;;;;;;;;5089773;28;20196;-86
2022/10/24 16:19:47;;;;;;;0.60;0.60;;;;;;;;;;5069889;28;20205;-86
2022/10/24 16:22:16;;;;;;;4.60;1.37;;;;;;;;;;5076916;28;20204;-86
2022/10/24 16:24:44;;;;;;;0.83;0.83;;;;;;;;;;5064167;28;20201;-87
2022/10/24 16:27:12;;;;;;;0.50;0.50;;;;;;;;;;5073849;28;20242;-86
2022/10/24 16:29:42;;;;;;;1.60;0.80;;;;;;;;;;5092334;28;20208;-86
2022/10/24 16:32:11;;;;;;;2.40;1.20;;;;;;;;;;5094982;28;20207;-85
2022/10/24 16:34:40;;;;;;;2.63;1.50;;;;;;;;;;5076572;28;20216;-86
2022/10/24 16:37:08;;;;;;;1.13;0.53;;;;;;;;;;5093801;28;20207;-86
2022/10/24 16:39:37;;;;;;;1.03;1.00;;;;;;;;;;5073540;28;20199;-86
2022/10/24 16:42:06;;;;;;;5.67;1.53;;;;;;;;;;5066972;28;20269;-86
2022/10/24 16:44:35;;;;;;;1.40;1.10;;;;;;;;;;5076872;28;20224;-86
2022/10/24 16:47:05;;;;;;;2.83;1.30;;;;;;;;;;5076790;28;20192;-86
2022/10/24 16:49:34;;;;;;;2.80;1.40;;;;;;;;;;5106155;28;20205;-86
2022/10/24 16:52:02;;;;;;;7.33;2.40;;;;;;;;;;5076642;28;20205;-86
2022/10/24 16:54:31;;;;;;;2.97;1.00;;;;;;;;;;5076981;28;20196;-86
2022/10/24 16:56:59;;;;;;;8.10;2.17;;;;;;;;;;5076521;28;20199;-86
2022/10/24 16:59:28;;;;;;;1.23;0.90;;;;;;;;;;5076977;28;20196;-86
2022/10/24 17:01:56;;;;;;;8.60;2.00;;;;;;;;;;5093378;28;20265;-86
2022/10/24 17:04:26;;;;;;;5.90;0.77;;;;;;;;;;5076970;28;20251;-86
2022/10/24 17:07:03;;;;;;;6.30;2.63;;;;;;;;;;5074873;28;20199;-86
2022/10/24 17:09:31;;;;;;;26.57;1.43;;;;;;;;;;5094518;28;20223;-86
2022/10/24 17:11:59;;;;;;;9.03;3.67;;;;;;;;;;5075972;28;20210;-85
2022/10/24 17:14:28;;;;;;;4.83;1.63;;;;;;;;;;5093418;28;20204;-86
2022/10/24 17:16:56;;;;;;;2.73;0.83;;;;;;;;;;5092894;28;20289;-86
2022/10/24 17:19:25;;;;;;;2.57;1.70;;;;;;;;;;5076086;28;20222;-85
2022/10/24 17:21:55;;;;;;;4.37;1.50;;;;;;;;;;5075793;28;20223;-85
2022/10/24 17:24:24;;;;;;;2.20;1.60;;;;;;;;;;5073149;28;20200;-85
2022/10/24 17:26:53;;;;;;;4.57;1.53;;;;;;;;;;5062631;28;20249;-85
2022/10/24 17:29:24;;;;;;;1.07;1.07;;;;;;;;;;5076247;28;20191;-85
2022/10/24 17:31:52;;;;;;;5.87;2.53;;;;;;;;;;5092877;28;20227;-85
2022/10/24 17:34:21;;;;;;;3.93;1.17;;;;;;;;;;5075834;28;20221;-85
2022/10/24 17:36:53;;;;;;;6.67;1.87;;;;;;;;;;5068905;28;20220;-85
2022/10/24 17:39:24;;;;;;;10.47;3.20;;;;;;;;;;5075843;28;20235;-85
2022/10/24 17:41:53;;;;;;;8.57;2.60;;;;;;;;;;5072425;28;20227;-85
2022/10/24 17:44:21;;;;;;;10.03;2.83;;;;;;;;;;5060092;28;20204;-85
2022/10/24 17:46:50;;;;;;;8.30;1.60;;;;;;;;;;5065827;28;20191;-85
2022/10/24 17:49:25;;;;;;;29.60;2.00;;;;;;;;;;5087355;28;20255;-86
2022/10/24 17:51:54;;;;;;;6.50;2.03;;;;;;;;;;5075743;28;20195;-85
2022/10/24 17:54:23;;;;;;;19.53;4.87;;;;;;;;;;5080445;28;20207;-85
2022/10/24 17:56:52;;;;;;;4.60;2.70;;;;;;;;;;5093285;28;20212;-85
2022/10/24 17:59:21;;;;;;;1.07;1.07;;;;;;;;;;5070988;28;20196;-85
2022/10/24 18:01:50;;;;;;;20.57;4.53;;;;;;;;;;5064058;28;20216;-85
2022/10/24 18:04:18;;;;;;;11.37;3.90;;;;;;;;;;5075625;28;20203;-85
2022/10/24 18:06:47;;;;;;;6.80;1.00;;;;;;;;;;5075554;28;20203;-85
2022/10/24 18:09:15;;;;;;;15.83;3.87;;;;;;;;;;5075421;28;20223;-85
2022/10/24 18:11:45;;;;;;;20.20;4.50;;;;;;;;;;5093088;28;20206;-85
2022/10/24 18:14:13;;;;;;;11.80;3.40;;;;;;;;;;5073704;28;20255;-85
2022/10/24 18:16:42;;;;;;;13.80;4.10;;;;;;;;;;5083456;28;20564;-85
2022/10/24 18:19:10;;;;;;;9.17;3.30;;;;;;;;;;5063652;28;20204;-85
2022/10/24 18:21:39;;;;;;;6.30;3.30;;;;;;;;;;5075253;28;20222;-85
2022/10/24 18:24:07;;;;;;;10.37;3.87;;;;;;;;;;5072310;28;20267;-85